Time;durP1;ratioP1;P1;durP2;ratioP2;P2;SDS_P1;SDS_P2;PMS_P1;PMS_P2;Temp;Humidity;BMP_temperature;BMP_pressure;BME280_temperature;BME280_humidity;BME280_pressure;Samples;Min_cycle;Max_cycle;Signal;HPM_P1;HPM_P2
2022/12/14 00:02:00;;;;;;;3.78;1.45;;;-2.50;99.90;;;;;;6165788;23;20016;-88
2022/12/14 00:04:28;;;;;;;2.10;1.02;;;-2.70;99.90;;;;;;6190275;23;20020;-88
2022/12/14 00:07:12;;;;;;;6.97;2.03;;;-3.60;99.90;;;;;;6190199;23;20099;-90
2022/12/14 00:09:45;;;;;;;1.42;1.33;;;-2.10;99.90;;;;;;6167958;23;20017;-88
2022/12/14 00:12:11;;;;;;;1.75;0.63;;;-2.60;99.90;;;;;;6166507;23;20342;-88
2022/12/14 00:14:38;;;;;;;3.83;1.20;;;-2.60;99.90;;;;;;6190377;23;20017;-88
2022/12/14 00:17:04;;;;;;;;;;;-3.50;99.90;;;;;;6215547;23;20021;-88
2022/12/14 00:19:32;;;;;;;5.72;1.00;;;-3.80;99.90;;;;;;6190274;23;20003;-88
2022/12/14 00:22:03;;;;;;;4.25;1.70;;;-2.70;99.90;;;;;;6214996;23;20012;-89
2022/12/14 00:24:34;;;;;;;2.28;1.20;;;-3.10;99.90;;;;;;6166870;23;20040;-88
2022/12/14 00:27:08;;;;;;;2.95;1.70;;;-2.60;99.90;;;;;;6165743;23;20048;-88
2022/12/14 00:29:36;;;;;;;1.13;0.80;;;-2.20;99.90;;;;;;6190246;23;20027;-88
2022/12/14 00:32:01;;;;;;;2.67;1.50;;;-3.30;99.90;;;;;;6189873;23;20020;-88
2022/12/14 00:34:37;;;;;;;;;;;;;;;;;;;;;
2022/12/14 00:37:06;;;;;;;1.52;1.42;;;-4.30;99.90;;;;;;6192610;23;20021;-88
2022/12/14 00:39:35;;;;;;;2.90;2.17;;;-3.90;99.90;;;;;;6190090;23;20095;-88
2022/12/14 00:42:19;;;;;;;;;;;;;;;;;;;;;
2022/12/14 00:44:48;;;;;;;;;;;-2.40;99.90;;;;;;6215711;23;20048;-88
2022/12/14 00:47:19;;;;;;;5.35;1.30;;;-4.10;99.90;;;;;;6214817;23;19943;-88
2022/12/14 00:49:48;;;;;;;1.80;0.95;;;-4.30;99.90;;;;;;6215129;23;20017;-88
2022/12/14 00:52:17;;;;;;;1.02;1.02;;;-3.80;99.90;;;;;;6189848;23;20111;-89
2022/12/14 00:54:46;;;;;;;1.67;1.58;;;-2.40;99.90;;;;;;6189550;23;20086;-89
2022/12/14 00:57:19;;;;;;;9.35;1.73;;;-3.00;99.90;;;;;;6189289;23;20476;-88
2022/12/14 00:59:52;;;;;;;0.90;0.68;;;-2.80;99.90;;;;;;6190315;23;20027;-89
2022/12/14 01:02:20;;;;;;;6.57;2.03;;;-2.70;99.90;;;;;;6189692;23;20028;-89
2022/12/14 01:04:53;;;;;;;0.60;0.60;;;-3.20;99.90;;;;;;6189365;23;20047;-89
2022/12/14 01:07:19;;;;;;;3.03;0.73;;;-4.00;99.90;;;;;;6189719;23;20092;-88
2022/12/14 01:09:48;;;;;;;3.10;1.17;;;-2.90;99.90;;;;;;6189770;23;20055;-89
2022/12/14 01:12:26;;;;;;;;;;;;;;;;;;;;;
2022/12/14 01:14:52;;;;;;;1.58;1.17;;;-4.20;99.90;;;;;;6214763;23;20030;-88
2022/12/14 01:17:18;;;;;;;0.47;0.47;;;-2.90;99.90;;;;;;6189666;23;20088;-89
2022/12/14 01:19:46;;;;;;;1.40;1.13;;;-3.00;99.90;;;;;;6165062;23;20032;-88
2022/12/14 01:22:14;;;;;;;0.30;0.30;;;-4.10;99.90;;;;;;6188854;23;20027;-89
2022/12/14 01:24:45;;;;;;;3.67;1.23;;;-2.90;99.90;;;;;;6214323;23;20024;-89
2022/12/14 01:27:11;;;;;;;1.48;1.17;;;-4.30;99.90;;;;;;6188849;23;20016;-89
2022/12/14 01:29:37;;;;;;;0.63;0.63;;;-3.00;99.90;;;;;;6189477;23;20345;-89
2022/12/14 01:32:03;;;;;;;1.57;1.47;;;-3.60;99.90;;;;;;6189647;23;20035;-89
2022/12/14 01:34:29;;;;;;;3.30;1.47;;;-4.20;99.90;;;;;;6189161;23;20016;-91
2022/12/14 01:37:12;;;;;;;4.13;0.77;;;-4.10;99.90;;;;;;6189266;23;20247;-89
2022/12/14 01:39:43;;;;;;;1.67;1.33;;;-3.30;99.90;;;;;;6190029;23;20023;-89
2022/12/14 01:42:15;;;;;;;3.00;1.30;;;-3.70;99.90;;;;;;6189475;23;20017;-88
2022/12/14 01:44:44;;;;;;;2.10;1.20;;;-4.20;99.90;;;;;;6189227;23;20020;-88
2022/12/14 01:47:18;;;;;;;0.68;0.68;;;-3.60;99.90;;;;;;6189169;23;20013;-88
2022/12/14 01:49:48;;;;;;;0.93;0.55;;;-3.60;99.90;;;;;;6190037;23;20030;-88
2022/12/14 01:52:19;;;;;;;2.75;1.42;;;-3.50;99.90;;;;;;6189218;23;20017;-89
2022/12/14 01:55:00;;;;;;;1.92;1.27;;;-4.50;99.90;;;;;;6189648;23;20095;-89
2022/12/14 01:57:38;;;;;;;4.57;1.48;;;-4.20;99.90;;;;;;6188871;23;20103;-88
2022/12/14 02:00:12;;;;;;;5.72;1.45;;;-4.50;99.90;;;;;;6189178;23;20048;-88
2022/12/14 02:02:58;;;;;;;1.52;1.10;;;-5.40;99.90;;;;;;6213942;23;20048;-89
2022/12/14 02:05:27;;;;;;;6.57;0.73;;;-4.20;99.90;;;;;;6188825;23;20030;-88
2022/12/14 02:08:01;;;;;;;1.27;1.17;;;-3.70;99.90;;;;;;6189207;23;20017;-88
2022/12/14 02:10:35;;;;;;;2.72;1.27;;;-4.60;99.90;;;;;;6164660;23;20030;-88
2022/12/14 02:13:13;;;;;;;1.23;1.15;;;-3.90;99.90;;;;;;6189780;23;20034;-88
2022/12/14 02:15:48;;;;;;;0.70;0.70;;;-3.40;99.90;;;;;;6213851;23;20066;-89
2022/12/14 02:18:22;;;;;;;3.60;1.88;;;-4.70;99.90;;;;;;6189394;23;20441;-89
2022/12/14 02:21:19;;;;;;;0.30;0.30;;;-3.90;99.90;;;;;;6214282;23;20013;-89
2022/12/14 02:24:10;;;;;;;2.28;1.05;;;-5.10;99.90;;;;;;6189196;23;20024;-89
2022/12/14 02:27:20;;;;;;;1.80;1.25;;;-5.10;99.90;;;;;;6188760;23;20013;-89
2022/12/14 02:30:00;;;;;;;0.22;0.22;;;-6.40;99.90;;;;;;6046233;23;20018;-89
2022/12/14 02:32:55;;;;;;;;;;;;;;;;;;;;;
2022/12/14 02:35:35;;;;;;;3.72;1.38;;;-4.20;99.90;;;;;;6213679;23;20028;-90
2022/12/14 02:38:13;;;;;;;1.80;1.08;;;-5.20;99.90;;;;;;6214083;23;20017;-89
2022/12/14 02:41:01;;;;;;;0.80;0.65;;;-4.50;99.90;;;;;;6188824;23;20031;-88
2022/12/14 02:43:39;;;;;;;2.08;0.90;;;-5.40;99.90;;;;;;6188807;23;20024;-90
2022/12/14 02:46:27;;;;;;;0.75;0.50;;;-4.50;99.90;;;;;;6214257;23;20016;-89
2022/12/14 02:49:09;;;;;;;0.65;0.65;;;-5.40;99.90;;;;;;6189426;23;20393;-89
2022/12/14 02:51:55;;;;;;;1.65;1.00;;;-5.30;99.90;;;;;;6188714;23;20017;-89
2022/12/14 02:54:43;;;;;;;1.45;0.70;;;-5.40;99.90;;;;;;6188826;23;20048;-89
2022/12/14 02:57:18;;;;;;;1.00;0.68;;;-5.40;99.90;;;;;;6188688;23;20468;-89
2022/12/14 02:59:45;;;;;;;0.38;0.38;;;-5.40;99.90;;;;;;6213672;23;20446;-89
2022/12/14 03:02:13;;;;;;;1.55;0.60;;;-5.40;99.90;;;;;;6188777;23;20472;-89
2022/12/14 03:04:46;;;;;;;6.63;0.93;;;-5.40;99.90;;;;;;6163562;23;20027;-89
2022/12/14 03:07:33;;;;;;;3.00;1.08;;;-5.00;99.90;;;;;;6141245;23;20016;-90
2022/12/14 03:10:10;;;;;;;2.25;0.88;;;-5.40;99.90;;;;;;6188089;23;20020;-90
2022/12/14 03:12:40;;;;;;;4.50;1.13;;;-5.40;99.90;;;;;;6187797;23;20322;-90
2022/12/14 03:15:08;;;;;;;0.82;0.70;;;-5.50;99.90;;;;;;6212680;23;20017;-90
2022/12/14 03:17:37;;;;;;;0.85;0.73;;;-5.50;99.90;;;;;;6187366;23;20044;-89
2022/12/14 03:20:21;;;;;;;2.17;1.05;;;-5.50;99.90;;;;;;6165124;23;20052;-89
2022/12/14 03:23:07;;;;;;;0.57;0.57;;;-5.50;99.90;;;;;;6187576;23;20087;-89
2022/12/14 03:26:12;;;;;;;3.75;0.80;;;-4.10;99.90;;;;;;6212694;23;20091;-90
2022/12/14 03:28:46;;;;;;;2.70;1.20;;;-5.60;99.90;;;;;;6106562;23;20017;-89
2022/12/14 03:31:26;;;;;;;0.20;0.20;;;-4.80;99.90;;;;;;6188038;23;20052;-90
2022/12/14 03:33:55;;;;;;;0.30;0.30;;;-4.20;99.90;;;;;;6189868;23;20017;-90
2022/12/14 03:36:36;;;;;;;;;;;;;;;;;;;;;
2022/12/14 03:39:05;;;;;;;3.15;1.58;;;-5.50;99.90;;;;;;6214717;23;20453;-91
2022/12/14 03:41:58;;;;;;;0.93;0.93;;;-6.40;99.90;;;;;;6190287;23;20052;-92
2022/12/14 03:44:43;;;;;;;1.67;1.20;;;-5.70;99.90;;;;;;6190642;23;20024;-90
2022/12/14 03:47:48;;;;;;;0.70;0.70;;;-5.80;99.90;;;;;;6189513;23;20023;-91
2022/12/14 03:50:30;;;;;;;0.38;0.38;;;-5.80;99.90;;;;;;6189772;23;20239;-91
2022/12/14 03:53:38;;;;;;;0.75;0.63;;;-6.40;99.90;;;;;;6189757;23;20013;-90
2022/12/14 03:56:20;;;;;;;4.10;2.28;;;-5.90;99.90;;;;;;6189945;23;20016;-90
2022/12/14 03:59:30;;;;;;;0.38;0.38;;;-6.00;99.90;;;;;;6189524;23;20017;-90
2022/12/14 04:02:15;;;;;;;0.35;0.35;;;-6.00;99.90;;;;;;6189360;23;20020;-90
2022/12/14 04:05:07;;;;;;;0.10;0.10;;;-5.00;99.90;;;;;;6189631;23;20091;-90
2022/12/14 04:07:45;;;;;;;1.38;1.33;;;-6.40;99.90;;;;;;6189285;23;20048;-95
2022/12/14 04:19:07;;;;;;;0.93;0.85;;;-6.10;99.90;;;;;;6213904;23;20052;-90
2022/12/14 04:22:20;;;;;;;2.33;2.13;;;-5.20;99.90;;;;;;6213540;23;20357;-90
2022/12/14 04:28:12;;;;;;;;;;;;;;;;;;;;;
2022/12/14 04:31:01;;;;;;;;;;;;;;;;;;;;;
2022/12/14 04:33:53;;;;;;;5.05;1.13;;;-5.90;99.90;;;;;;6215424;23;20115;-89
2022/12/14 04:36:37;;;;;;;2.30;1.08;;;-6.90;99.90;;;;;;6169650;23;20066;-89
2022/12/14 04:39:12;;;;;;;0.43;0.30;;;-5.30;99.90;;;;;;6189974;23;20078;-89
2022/12/14 04:41:46;;;;;;;0.45;0.30;;;-5.50;99.90;;;;;;6190228;23;20020;-89
2022/12/14 04:44:29;;;;;;;0.60;0.32;;;-5.40;99.90;;;;;;6214859;23;20023;-89
2022/12/14 04:47:01;;;;;;;2.83;1.13;;;-6.30;99.90;;;;;;6214680;23;20017;-90
2022/12/14 04:50:01;;;;;;;;;;;;;;;;;;;;;
2022/12/14 04:53:07;;;;;;;;;;;;;;;;;;;;;
2022/12/14 04:55:50;;;;;;;0.13;0.13;;;-6.30;99.90;;;;;;6215408;23;20012;-89
2022/12/14 04:58:29;;;;;;;0.65;0.65;;;-6.60;99.90;;;;;;6215383;23;20044;-89
2022/12/14 05:01:35;;;;;;;2.47;1.00;;;-7.40;99.90;;;;;;6189449;23;20028;-89
2022/12/14 05:04:07;;;;;;;0.45;0.45;;;-6.50;99.90;;;;;;6189493;23;20016;-89
2022/12/14 05:07:15;;;;;;;;;;;;;;;;;;;;;
2022/12/14 05:10:26;;;;;;;1.67;1.20;;;-6.40;99.90;;;;;;6215099;23;20337;-90
2022/12/14 05:13:07;;;;;;;6.65;1.17;;;-6.50;99.90;;;;;;6140591;23;20023;-90
2022/12/14 05:15:42;;;;;;;4.13;0.90;;;-6.40;99.90;;;;;;6190077;23;20461;-90
2022/12/14 05:18:21;;;;;;;1.73;0.73;;;-5.50;99.90;;;;;;6214978;23;20074;-90
2022/12/14 05:20:55;;;;;;;0.75;0.75;;;-5.70;99.90;;;;;;6188590;23;20407;-90
2022/12/14 05:23:23;;;;;;;1.67;1.58;;;-5.90;99.90;;;;;;6166402;23;20028;-89
2022/12/14 05:25:59;;;;;;;0.23;0.23;;;-6.50;99.90;;;;;;6189595;23;20013;-89
2022/12/14 05:28:35;;;;;;;0.10;0.10;;;-5.30;99.90;;;;;;6190120;23;20032;-90
2022/12/14 05:31:04;;;;;;;1.95;1.85;;;-5.50;99.90;;;;;;6166049;23;20016;-89
2022/12/14 05:33:34;;;;;;;2.75;0.45;;;-5.70;99.90;;;;;;6189386;23;20099;-90
2022/12/14 05:36:09;;;;;;;0.30;0.30;;;-6.40;99.90;;;;;;6188813;23;20044;-90
2022/12/14 05:38:42;;;;;;;0.65;0.47;;;-6.70;99.90;;;;;;6189145;23;20090;-89
2022/12/14 05:41:08;;;;;;;3.00;0.93;;;-6.70;99.90;;;;;;6164778;23;20454;-89
2022/12/14 05:43:42;;;;;;;1.00;1.00;;;-5.40;99.90;;;;;;6190286;23;20021;-89
2022/12/14 05:46:18;;;;;;;4.70;1.38;;;-6.90;99.90;;;;;;6189210;23;20048;-89
2022/12/14 05:48:58;;;;;;;1.42;0.90;;;-6.00;99.90;;;;;;6189314;23;20095;-89
2022/12/14 05:51:24;;;;;;;2.45;0.93;;;-7.40;99.90;;;;;;6144196;23;20020;-88
2022/12/14 05:53:58;;;;;;;0.65;0.38;;;-5.50;99.90;;;;;;6189198;23;20099;-91
2022/12/14 05:56:27;;;;;;;0.15;0.15;;;-6.60;99.90;;;;;;6166461;23;20127;-89
2022/12/14 05:58:58;;;;;;;0.10;0.10;;;-6.00;99.90;;;;;;6214240;23;20089;-90
2022/12/14 06:01:31;;;;;;;3.30;0.88;;;-7.40;99.90;;;;;;6189399;23;20017;-89
2022/12/14 06:04:00;;;;;;;0.40;0.40;;;-5.70;99.90;;;;;;6213856;23;20059;-90
2022/12/14 06:06:30;;;;;;;0.30;0.30;;;-6.80;99.90;;;;;;6189339;23;20447;-89
2022/12/14 06:08:58;;;;;;;0.85;0.57;;;-5.70;99.90;;;;;;6189110;23;20020;-90
2022/12/14 06:11:34;;;;;;;7.68;1.85;;;-5.70;99.90;;;;;;6189030;23;20024;-89
2022/12/14 06:14:19;;;;;;;5.13;1.27;;;-7.10;99.90;;;;;;6169986;23;20012;-90
2022/12/14 06:16:55;;;;;;;4.28;1.30;;;-6.00;99.90;;;;;;6214475;23;20028;-89
2022/12/14 06:19:26;;;;;;;1.45;1.35;;;-5.60;99.90;;;;;;6166209;23;20051;-89
2022/12/14 06:22:15;;;;;;;0.60;0.60;;;-6.90;99.90;;;;;;6188912;23;20024;-89
2022/12/14 06:24:52;;;;;;;1.05;0.95;;;-5.70;99.90;;;;;;6214181;23;20063;-89
2022/12/14 06:27:18;;;;;;;0.35;0.35;;;-6.30;99.90;;;;;;6188899;23;20013;-90
2022/12/14 06:29:51;;;;;;;1.17;1.07;;;-5.80;99.90;;;;;;6188810;23;20013;-89
2022/12/14 06:32:25;;;;;;;1.05;1.05;;;-6.90;99.90;;;;;;6189309;23;20028;-90
2022/12/14 06:35:03;;;;;;;;;;;;;;;;;;;;;
2022/12/14 06:37:38;;;;;;;5.05;0.45;;;-7.80;99.90;;;;;;6214070;23;20024;-90
2022/12/14 06:40:08;;;;;;;1.10;0.75;;;-6.40;99.90;;;;;;6187746;23;20095;-89
2022/12/14 06:42:33;;;;;;;0.28;0.28;;;-6.90;99.90;;;;;;6190287;23;20074;-85
2022/12/14 06:44:59;;;;;;;1.80;0.50;;;-6.00;99.90;;;;;;6162957;23;20017;-88
2022/12/14 06:47:25;;;;;;;1.70;1.60;;;-6.40;99.90;;;;;;6187364;23;20017;-83
2022/12/14 06:49:51;;;;;;;6.15;1.45;;;-6.30;99.90;;;;;;6163373;23;20016;-85
2022/12/14 06:52:22;;;;;;;4.60;3.30;;;-6.10;99.90;;;;;;6187322;23;20016;-88
2022/12/14 06:54:50;;;;;;;1.55;0.70;;;-6.90;99.90;;;;;;6212740;23;20025;-88
2022/12/14 06:57:27;;;;;;;2.75;0.80;;;-5.60;99.90;;;;;;6187115;23;20022;-88
2022/12/14 06:59:55;;;;;;;0.50;0.50;;;-6.40;99.90;;;;;;6164473;23;20071;-88
2022/12/14 07:02:21;;;;;;;0.17;0.17;;;-7.20;99.90;;;;;;6186809;23;20099;-85
2022/12/14 07:04:47;;;;;;;2.27;1.63;;;-7.10;99.90;;;;;;6162708;23;20404;-90
2022/12/14 07:07:24;;;;;;;0.10;0.10;;;-7.10;99.90;;;;;;6162049;23;20017;-90
2022/12/14 07:09:50;;;;;;;2.13;0.70;;;-6.10;99.90;;;;;;6164373;23;20012;-90
2022/12/14 07:12:18;;;;;;;0.60;0.60;;;-6.90;99.90;;;;;;6188133;23;20016;-89
2022/12/14 07:14:46;;;;;;;3.72;1.20;;;-7.20;99.90;;;;;;6164111;23;20044;-90
2022/12/14 07:17:19;;;;;;;0.30;0.30;;;-5.90;99.90;;;;;;6212834;23;20013;-90
2022/12/14 07:19:54;;;;;;;3.10;0.55;;;-6.70;99.90;;;;;;6187878;23;20121;-89
2022/12/14 07:22:27;;;;;;;0.30;0.22;;;-7.20;99.90;;;;;;6163677;23;20430;-88
2022/12/14 07:24:59;;;;;;;0.17;0.17;;;-6.20;99.90;;;;;;6162608;23;20025;-90
2022/12/14 07:27:30;;;;;;;0.13;0.13;;;-5.90;99.90;;;;;;6213510;23;20059;-89
2022/12/14 07:30:06;;;;;;;4.20;1.33;;;-6.20;99.90;;;;;;6189063;23;20027;-88
2022/12/14 07:32:37;;;;;;;3.38;0.95;;;-6.10;99.90;;;;;;6188621;23;20021;-91
2022/12/14 07:35:24;;;;;;;1.40;1.00;;;-6.60;99.90;;;;;;6169049;23;20461;-91
2022/12/14 07:37:53;;;;;;;1.45;0.80;;;-7.20;99.90;;;;;;6188817;23;20013;-92
2022/12/14 07:43:17;;;;;;;1.02;0.65;;;-6.00;99.90;;;;;;6192932;23;20024;-91
2022/12/14 07:45:46;;;;;;;1.05;1.05;;;-6.90;99.90;;;;;;6189072;23;20528;-91
2022/12/14 07:48:15;;;;;;;3.35;1.35;;;-6.80;99.90;;;;;;6213417;23;20405;-88
2022/12/14 07:50:41;;;;;;;4.28;0.73;;;-6.00;99.90;;;;;;6189574;23;20021;-89
2022/12/14 07:53:16;;;;;;;7.93;1.20;;;-7.70;99.90;;;;;;6189757;23;20059;-93
2022/12/14 07:56:05;;;;;;;1.77;1.05;;;-7.40;99.90;;;;;;6189135;23;20346;-94
2022/12/14 07:59:00;;;;;;;1.30;1.20;;;-6.50;99.90;;;;;;6188698;23;20017;-93
2022/12/14 08:01:34;;;;;;;0.85;0.60;;;-7.30;99.90;;;;;;6188627;23;20492;-93
2022/12/14 08:04:10;;;;;;;1.55;0.95;;;-6.30;99.90;;;;;;6189766;23;20027;-95
2022/12/14 09:21:30;;;;;;;6.30;1.23;;;-1.70;99.90;;;;;;6217286;23;20020;-94
2022/12/14 10:00:24;;;;;;;1.00;1.00;;;-1.40;99.90;;;;;;6096561;23;20023;-87
2022/12/14 10:03:22;;;;;;;;;;;;;;;;;;;;;
2022/12/14 10:06:31;;;;;;;2.60;1.25;;;-1.00;99.90;;;;;;6216369;23;20018;-89
2022/12/14 10:09:28;;;;;;;1.15;0.75;;;-0.40;99.90;;;;;;6164263;23;20458;-88
2022/12/14 10:12:15;;;;;;;1.30;0.98;;;-0.10;99.90;;;;;;6163119;23;20017;-87
2022/12/14 10:14:57;;;;;;;2.13;0.98;;;-0.20;99.90;;;;;;6188556;23;20027;-88
2022/12/14 10:17:48;;;;;;;3.92;1.77;;;0.40;99.90;;;;;;6192080;23;20017;-86
2022/12/14 10:20:47;;;;;;;1.20;1.10;;;0.70;99.90;;;;;;6163891;23;20056;-88
2022/12/14 10:23:26;;;;;;;1.40;1.25;;;1.20;99.90;;;;;;6188867;23;20016;-87
2022/12/14 10:26:01;;;;;;;6.28;1.95;;;2.30;99.90;;;;;;6163150;23;20480;-87
2022/12/14 10:28:51;;;;;;;1.45;1.02;;;1.90;99.90;;;;;;6163671;23;20345;-88
2022/12/14 10:31:32;;;;;;;3.50;0.88;;;2.30;99.90;;;;;;6164216;23;20346;-87
2022/12/14 10:34:13;;;;;;;2.97;1.60;;;1.60;99.90;;;;;;6163673;23;20496;-87
2022/12/14 10:37:00;;;;;;;2.65;0.85;;;2.40;99.90;;;;;;6163369;23;20027;-87
2022/12/14 10:39:52;;;;;;;2.55;1.35;;;2.50;99.90;;;;;;6188704;23;20013;-87
2022/12/14 10:42:42;;;;;;;1.30;0.82;;;2.90;99.90;;;;;;6163074;23;20334;-87
2022/12/14 10:45:23;;;;;;;2.83;1.30;;;2.50;99.90;;;;;;6163296;23;20147;-88
2022/12/14 10:48:10;;;;;;;1.80;1.70;;;3.50;99.90;;;;;;6162934;23;20016;-88
2022/12/14 10:51:02;;;;;;;3.88;0.90;;;3.70;99.90;;;;;;6187729;23;20021;-90
2022/12/14 10:54:05;;;;;;;2.83;1.75;;;3.90;99.90;;;;;;6188110;23;20020;-88
2022/12/14 10:56:38;;;;;;;2.33;0.80;;;4.00;99.90;;;;;;6191694;23;20341;-91
2022/12/14 10:59:30;;;;;;;2.80;1.65;;;4.80;99.90;;;;;;6218889;23;20012;-90
2022/12/14 11:02:08;;;;;;;4.32;1.77;;;4.00;99.90;;;;;;6192169;23;20530;-86
2022/12/14 11:05:03;;;;;;;1.80;1.08;;;4.40;99.90;;;;;;6193260;23;20012;-87
2022/12/14 11:07:35;;;;;;;2.13;0.95;;;4.60;99.90;;;;;;6167740;23;20333;-87
2022/12/14 11:10:34;;;;;;;1.92;1.08;;;4.80;99.90;;;;;;6192697;23;20017;-86
2022/12/14 11:13:36;;;;;;;3.85;1.40;;;4.90;99.90;;;;;;6170932;23;20449;-86
2022/12/14 11:16:36;;;;;;;2.47;1.73;;;5.00;99.90;;;;;;6193068;23;20038;-85
2022/12/14 11:19:34;;;;;;;;;;;;;;;;;;;;;
2022/12/14 11:22:13;;;;;;;3.10;1.08;;;5.10;99.90;;;;;;6200673;23;20016;-88
2022/12/14 11:24:44;;;;;;;2.60;1.17;;;5.30;99.90;;;;;;6218421;23;20066;-90
2022/12/14 11:28:02;;;;;;;2.42;1.63;;;5.50;99.90;;;;;;6218984;23;20016;-90
2022/12/14 11:33:48;;;;;;;1.10;1.00;;;5.40;99.90;;;;;;6182586;23;20027;-91
2022/12/14 11:36:39;;;;;;;3.15;1.13;;;5.40;99.90;;;;;;6195071;23;20018;-91
2022/12/14 11:39:17;;;;;;;1.45;1.35;;;5.50;99.90;;;;;;6193758;23;20017;-91
2022/12/14 11:42:12;;;;;;;2.72;1.55;;;5.60;99.90;;;;;;6193723;23;20016;-91
2022/12/14 11:45:00;;;;;;;2.45;2.22;;;5.40;99.90;;;;;;6218761;23;20465;-91
2022/12/14 11:48:10;;;;;;;1.20;1.10;;;5.10;99.90;;;;;;6221319;23;20031;-90
2022/12/14 11:50:50;;;;;;;;;;;;;;;;;;;;;
2022/12/14 11:53:23;;;;;;;1.80;0.95;;;5.10;99.90;;;;;;6219656;23;20463;-90
2022/12/14 11:56:23;;;;;;;1.85;1.38;;;5.00;99.90;;;;;;6195147;23;20523;-90
2022/12/14 11:59:14;;;;;;;1.48;1.08;;;4.60;99.90;;;;;;6195456;23;20023;-90
2022/12/14 12:01:48;;;;;;;1.88;1.20;;;5.10;99.90;;;;;;6195616;23;20091;-89
2022/12/14 12:04:27;;;;;;;2.33;1.17;;;5.30;99.90;;;;;;6196406;23;20453;-89
2022/12/14 12:07:08;;;;;;;;;;;;;;;;;;;;;
2022/12/14 12:10:13;;;;;;;0.75;0.73;;;4.30;99.90;;;;;;6220724;23;20341;-89
2022/12/14 12:12:55;;;;;;;2.63;1.25;;;5.30;99.90;;;;;;6199956;23;20099;-90
2022/12/14 12:15:30;;;;;;;3.63;1.65;;;5.20;99.90;;;;;;6220573;23;20070;-89
2022/12/14 12:18:27;;;;;;;2.40;1.27;;;4.90;99.90;;;;;;6247968;23;20062;-89
2022/12/14 12:21:13;;;;;;;0.85;0.60;;;5.40;99.90;;;;;;6196519;23;20020;-89
2022/12/14 12:23:51;;;;;;;3.15;0.95;;;5.50;99.90;;;;;;6196054;23;20387;-89
2022/12/14 12:26:28;;;;;;;1.92;1.20;;;5.30;99.90;;;;;;6196451;23;20012;-90
2022/12/14 12:29:22;;;;;;;2.20;1.38;;;4.90;99.90;;;;;;6195709;23;20024;-89
2022/12/14 12:32:32;;;;;;;1.10;0.80;;;5.70;99.90;;;;;;6140125;23;20467;-90
2022/12/14 12:35:23;;;;;;;1.10;0.88;;;5.80;99.90;;;;;;6075558;23;20076;-90
2022/12/14 12:38:26;;;;;;;1.88;1.00;;;5.80;99.90;;;;;;6164462;23;20023;-90
2022/12/14 12:41:51;;;;;;;;;;;;;;;;;;;;;
2022/12/14 12:44:55;;;;;;;2.25;1.90;;;5.70;99.90;;;;;;6220572;23;20025;-90
2022/12/14 12:47:48;;;;;;;0.98;0.90;;;5.60;99.90;;;;;;6184700;23;20095;-90
2022/12/14 12:50:29;;;;;;;2.78;1.05;;;5.20;99.90;;;;;;6195589;23;20020;-90
2022/12/14 12:53:18;;;;;;;1.52;1.33;;;5.60;99.90;;;;;;6194259;23;20020;-90
2022/12/14 12:55:54;;;;;;;2.30;1.27;;;5.70;99.90;;;;;;6219741;23;20020;-90
2022/12/14 12:58:27;;;;;;;1.73;1.20;;;5.60;99.90;;;;;;6171884;23;20016;-90
2022/12/14 13:01:20;;;;;;;1.23;0.70;;;5.60;99.90;;;;;;6219620;23;20150;-88
2022/12/14 13:03:59;;;;;;;1.02;0.70;;;5.60;99.90;;;;;;6207554;23;20017;-88
2022/12/14 13:06:51;;;;;;;0.63;0.63;;;6.00;99.90;;;;;;6194438;23;20016;-88
2022/12/14 13:10:13;;;;;;;1.15;0.68;;;5.70;99.90;;;;;;6219783;23;20016;-87
2022/12/14 13:12:48;;;;;;;1.00;1.00;;;5.00;99.90;;;;;;6213738;23;20028;-88
2022/12/14 13:15:28;;;;;;;2.08;1.63;;;5.80;99.90;;;;;;6195288;23;20022;-88
2022/12/14 13:18:22;;;;;;;1.05;0.68;;;5.80;99.90;;;;;;6219105;23;20069;-87
2022/12/14 13:20:53;;;;;;;1.23;0.90;;;5.20;99.90;;;;;;6194999;23;20020;-87
2022/12/14 13:23:39;;;;;;;2.20;1.25;;;5.80;99.90;;;;;;6219750;23;20016;-87
2022/12/14 13:26:49;;;;;;;1.30;1.20;;;5.90;99.90;;;;;;6172891;23;20038;-87
2022/12/14 13:29:52;;;;;;;1.25;0.93;;;5.10;99.90;;;;;;6219514;23;20012;-89
2022/12/14 13:33:03;;;;;;;2.45;0.90;;;6.00;99.90;;;;;;6219287;23;20051;-89
2022/12/14 13:36:01;;;;;;;2.63;1.23;;;6.00;99.90;;;;;;6195022;23;20024;-89
2022/12/14 13:39:06;;;;;;;1.23;0.80;;;5.90;99.90;;;;;;6218478;23;20016;-90
2022/12/14 13:42:04;;;;;;;1.10;1.00;;;5.60;99.90;;;;;;6195235;23;20457;-90
2022/12/14 13:44:57;;;;;;;1.92;1.25;;;5.20;99.90;;;;;;6219634;23;20471;-89
2022/12/14 13:47:54;;;;;;;2.15;1.55;;;5.00;99.90;;;;;;6193509;23;20016;-89
2022/12/14 13:50:59;;;;;;;0.95;0.90;;;5.00;99.90;;;;;;6193727;23;20024;-90
2022/12/14 13:54:06;;;;;;;2.00;0.85;;;5.40;99.90;;;;;;6194216;23;20472;-90
2022/12/14 13:56:44;;;;;;;1.92;1.20;;;5.20;99.90;;;;;;6190755;23;20491;-89
2022/12/14 13:59:37;;;;;;;3.33;0.95;;;5.30;99.90;;;;;;6219469;23;20045;-89
2022/12/14 14:02:23;;;;;;;3.53;1.00;;;5.30;99.90;;;;;;6218904;23;20024;-91
2022/12/14 14:05:07;;;;;;;0.70;0.70;;;5.40;99.90;;;;;;6193177;23;20070;-90
2022/12/14 14:07:35;;;;;;;1.13;0.82;;;4.80;99.90;;;;;;6198113;23;20356;-90
2022/12/14 14:13:32;;;;;;;1.88;1.20;;;5.50;99.90;;;;;;6219667;23;20059;-90
2022/12/14 14:16:15;;;;;;;;;;;;;;;;;;;;;
2022/12/14 14:19:08;;;;;;;2.05;1.25;;;4.60;99.90;;;;;;6219257;23;20012;-89
2022/12/14 14:21:40;;;;;;;1.77;1.02;;;4.30;99.90;;;;;;6193634;23;20470;-89
2022/12/14 14:24:21;;;;;;;2.22;0.90;;;3.90;99.90;;;;;;6193758;23;20012;-90
2022/12/14 14:30:18;;;;;;;;;;;2.40;99.90;;;;;;6196535;23;20020;-89
2022/12/14 14:32:56;;;;;;;;;;;;;;;;;;;;;
2022/12/14 14:35:44;;;;;;;2.00;1.48;;;3.80;99.90;;;;;;6219013;23;20341;-89
2022/12/14 14:38:39;;;;;;;2.92;1.35;;;2.50;99.90;;;;;;6169867;23;20051;-90
2022/12/14 14:41:22;;;;;;;1.30;0.85;;;3.40;99.90;;;;;;6194253;23;20027;-89
2022/12/14 14:44:20;;;;;;;1.45;0.63;;;3.30;99.90;;;;;;6194678;23;20016;-90
2022/12/14 14:46:49;;;;;;;0.70;0.60;;;2.00;99.90;;;;;;6194126;23;20022;-90
2022/12/14 14:49:49;;;;;;;1.90;1.13;;;2.50;99.90;;;;;;6194298;23;20337;-90
2022/12/14 14:52:44;;;;;;;1.23;0.80;;;1.90;99.90;;;;;;6192840;23;20027;-90
2022/12/14 14:55:37;;;;;;;0.93;0.80;;;1.70;99.90;;;;;;6151236;23;20019;-90
2022/12/14 14:58:12;;;;;;;3.85;0.73;;;1.60;99.90;;;;;;6194011;23;20028;-90
2022/12/14 15:00:52;;;;;;;1.15;0.73;;;2.70;99.90;;;;;;6193479;23;20020;-90
2022/12/14 15:03:42;;;;;;;1.75;0.80;;;1.40;99.90;;;;;;6190917;23;20031;-91
2022/12/14 15:06:39;;;;;;;0.88;0.88;;;1.20;99.90;;;;;;6217238;23;20094;-89
2022/12/14 15:09:08;;;;;;;0.73;0.50;;;1.20;99.90;;;;;;6183270;23;20024;-90
2022/12/14 15:12:10;;;;;;;;;;;;;;;;;;;;;
2022/12/14 15:14:39;;;;;;;2.17;1.83;;;0.70;99.90;;;;;;6218482;23;20019;-92
2022/12/14 15:17:18;;;;;;;1.27;0.73;;;0.80;99.90;;;;;;6194307;23;20055;-92
2022/12/14 15:20:04;;;;;;;1.00;0.63;;;2.10;99.90;;;;;;6193609;23;20019;-90
2022/12/14 15:25:53;;;;;;;1.65;0.82;;;0.50;99.90;;;;;;6216611;23;20023;-89
2022/12/14 15:28:25;;;;;;;0.65;0.65;;;0.50;99.90;;;;;;6214961;23;20091;-87
2022/12/14 15:30:54;;;;;;;1.00;0.60;;;0.40;99.90;;;;;;6194367;23;20027;-87
2022/12/14 15:33:26;;;;;;;0.63;0.52;;;0.70;99.90;;;;;;6192997;23;20016;-87
2022/12/14 15:36:05;;;;;;;0.50;0.47;;;0.30;99.90;;;;;;6196051;23;20095;-87
2022/12/14 15:38:34;;;;;;;1.45;0.88;;;0.10;99.90;;;;;;6194099;23;20468;-89
2022/12/14 15:41:11;;;;;;;0.50;0.50;;;0.80;99.90;;;;;;6193034;23;20461;-90
2022/12/14 15:43:42;;;;;;;1.45;0.80;;;-0.20;99.90;;;;;;6192952;23;20625;-91
2022/12/14 15:46:24;;;;;;;1.25;0.57;;;1.10;99.90;;;;;;6220035;23;20055;-90
2022/12/14 15:49:02;;;;;;;1.25;0.75;;;1.00;99.90;;;;;;6194206;23;20051;-92
2022/12/14 15:51:35;;;;;;;2.75;1.15;;;0.90;99.90;;;;;;6193283;23;20028;-91
2022/12/14 15:54:06;;;;;;;1.83;0.80;;;0.60;99.90;;;;;;6194192;23;20471;-90
2022/12/14 15:56:44;;;;;;;0.30;0.25;;;-0.50;99.90;;;;;;6192857;23;20020;-93
2022/12/14 15:59:25;;;;;;;1.75;0.77;;;-0.10;99.90;;;;;;6220377;23;20020;-90
2022/12/14 16:02:20;;;;;;;5.20;1.52;;;-0.70;99.90;;;;;;6220242;23;20016;-91
2022/12/14 16:04:55;;;;;;;1.95;0.60;;;-0.80;99.90;;;;;;6220771;23;20442;-90
2022/12/14 16:07:58;;;;;;;;;;;;;;;;;;;;;
2022/12/14 16:10:35;;;;;;;0.33;0.33;;;-1.00;99.90;;;;;;6217686;23;20013;-90
2022/12/14 16:13:13;;;;;;;0.75;0.63;;;-0.20;99.90;;;;;;6195027;23;20250;-89
2022/12/14 16:15:51;;;;;;;4.55;0.85;;;-0.90;99.90;;;;;;6202128;23;20099;-92
2022/12/14 16:18:25;;;;;;;0.40;0.40;;;-1.10;99.90;;;;;;6193875;23;20012;-91
2022/12/14 16:21:09;;;;;;;1.73;0.80;;;0.30;99.90;;;;;;6195187;23;20016;-93
2022/12/14 16:23:35;;;;;;;2.38;0.50;;;-1.30;99.90;;;;;;6193567;23;20099;-85
2022/12/14 16:26:17;;;;;;;4.23;1.20;;;0.00;99.90;;;;;;6217466;23;20098;-92
2022/12/14 16:28:48;;;;;;;0.65;0.65;;;-0.10;99.90;;;;;;6218637;23;20024;-89
2022/12/14 16:31:25;;;;;;;2.13;0.90;;;-0.50;99.90;;;;;;6195239;23;20018;-89
2022/12/14 16:34:28;;;;;;;1.17;0.73;;;-0.90;99.90;;;;;;6170844;23;20332;-89
2022/12/14 16:37:03;;;;;;;1.40;0.70;;;0.00;99.90;;;;;;6188646;23;20091;-89
2022/12/14 16:39:37;;;;;;;1.30;1.08;;;-1.30;99.90;;;;;;6194159;23;20035;-89
2022/12/14 16:42:28;;;;;;;0.65;0.65;;;-0.20;99.90;;;;;;6195840;23;20095;-89
2022/12/14 16:45:01;;;;;;;0.40;0.40;;;-1.50;99.90;;;;;;6195085;23;20082;-89
2022/12/14 16:47:47;;;;;;;0.70;0.50;;;-0.90;99.90;;;;;;6195556;23;20012;-90